Time;durP1;ratioP1;P1;durP2;ratioP2;P2;SDS_P1;SDS_P2;PMS_P1;PMS_P2;Temp;Humidity;BMP_temperature;BMP_pressure;BME280_temperature;BME280_humidity;BME280_pressure;Samples;Min_cycle;Max_cycle;Signal;HPM_P1;HPM_P2
2022/02/03 00:00:05;;;;;;;5.60;5.10;;;;;;;30.58;56.51;101056.31;5072553;27;66476;-35
2022/02/03 00:02:44;;;;;;;5.07;4.68;;;;;;;30.34;56.76;101020.00;5065486;28;69180;-35
2022/02/03 00:05:24;;;;;;;8.20;4.88;;;;;;;30.56;56.25;101058.41;5063350;28;66881;-35
2022/02/03 00:11:28;;;;;;;5.28;4.78;;;;;;;30.35;56.49;101028.94;5067404;28;66186;-34
2022/02/03 00:22:10;;;;;;;6.50;5.10;;;;;;;30.10;56.70;101010.66;5074921;28;65661;-35
2022/02/03 00:24:45;;;;;;;7.80;5.20;;;;;;;30.53;56.50;101083.19;5064280;27;70261;-35
2022/02/03 00:27:39;;;;;;;5.18;4.78;;;;;;;30.53;56.79;101079.66;5067277;28;65593;-35
2022/02/03 00:30:17;;;;;;;5.82;5.43;;;;;;;30.51;57.05;101077.19;5063995;28;70141;-35
2022/02/03 00:35:45;;;;;;;5.50;5.10;;;;;;;30.50;56.82;101089.03;5066238;28;70081;-36
2022/02/03 00:38:27;;;;;;;6.88;5.28;;;;;;;30.51;56.93;101093.44;5062461;28;65738;-36
2022/02/03 00:49:16;;;;;;;5.93;5.43;;;;;;;30.49;56.53;101092.81;5061377;28;65670;-36
2022/02/03 00:51:49;;;;;;;6.38;5.88;;;;;;;30.53;56.42;101107.56;5066059;28;70150;-36
2022/02/03 00:54:22;;;;;;;6.05;5.55;;;;;;;30.54;56.55;101114.66;5067575;27;66482;-35
2022/02/03 00:56:56;;;;;;;6.45;5.47;;;;;;;30.57;56.90;101121.53;5062690;28;69634;-34
2022/02/03 00:59:34;;;;;;;6.50;5.53;;;;;;;30.56;56.72;101117.97;5063250;27;65269;-35
2022/02/03 01:02:25;;;;;;;5.68;5.18;;;;;;;30.49;56.77;101128.00;5068083;28;69701;-35
2022/02/03 01:04:59;;;;;;;6.30;5.80;;;;;;;30.54;56.80;101127.38;5064944;28;66463;-35
2022/02/03 01:07:36;;;;;;;6.53;5.90;;;;;;;30.57;56.80;101133.19;5063694;27;70389;-35
2022/02/03 01:10:13;;;;;;;7.05;6.22;;;;;;;30.32;56.37;101092.44;5082807;27;65955;-35
2022/02/03 01:15:44;;;;;;;9.15;6.47;;;;;;;30.58;56.66;101142.13;5064347;28;66089;-35
2022/02/03 01:35:15;;;;;;;6.72;6.22;;;;;;;30.61;56.26;101161.47;5050181;28;69951;-36
2022/02/03 01:46:12;;;;;;;26.95;20.48;;;;;;;30.62;57.28;101163.16;5064994;27;70002;-36
2022/02/03 01:51:43;;;;;;;25.40;18.17;;;;;;;30.64;57.14;101169.19;5066267;28;70244;-35
2022/02/03 01:54:14;;;;;;;32.47;18.20;;;;;;;30.64;57.20;101160.22;5066206;27;66744;-36
2022/02/03 01:57:11;;;;;;;22.08;17.80;;;;;;;30.62;57.01;101167.72;5062471;28;71219;-36
2022/02/03 01:59:49;;;;;;;21.08;18.38;;;;;;;30.43;56.69;101118.03;5071167;28;66306;-35
2022/02/03 02:02:31;;;;;;;27.23;22.35;;;;;;;30.51;56.86;101128.63;5074512;27;69906;-35
2022/02/03 02:05:22;;;;;;;26.85;23.63;;;;;;;30.69;56.92;101172.09;5069553;27;66139;-35
2022/02/03 02:08:17;;;;;;;32.03;25.07;;;;;;;30.68;57.41;101165.00;5068626;28;69898;-36
2022/02/03 02:11:13;;;;;;;29.02;25.45;;;;;;;30.78;57.51;101169.16;5069943;28;65087;-35
2022/02/03 02:17:29;;;;;;;29.15;25.38;;;;;;;30.81;57.58;101168.75;5066095;27;65657;-36
2022/02/03 02:42:57;;;;;;;21.45;19.15;;;;;;;30.69;56.83;101123.34;5058683;28;70048;-35
2022/02/03 02:45:39;;;;;;;20.13;17.95;;;;;;;30.93;57.15;101150.81;5067372;27;65303;-35
2022/02/03 02:48:15;;;;;;;20.20;17.92;;;;;;;30.93;56.99;101156.22;5070492;28;70148;-35
2022/02/03 02:51:15;;;;;;;21.38;19.35;;;;;;;30.65;56.97;101110.47;5065440;28;66671;-34
2022/02/03 03:02:58;;;;;;;21.92;19.50;;;;;;;30.66;57.00;101088.56;5061344;28;66404;-35
2022/02/03 03:31:22;;;;;;;47.05;38.88;;;;;;;31.12;57.03;101111.97;5073664;27;66024;-36
2022/02/03 03:34:08;;;;;;;57.72;41.88;;;;;;;31.07;57.18;101092.81;5060544;28;70028;-33
2022/02/03 03:36:42;;;;;;;62.47;46.38;;;;;;;31.14;57.28;101092.75;5068475;28;66464;-35
2022/02/03 03:39:13;;;;;;;63.92;48.00;;;;;;;31.12;57.11;101087.56;5074939;27;70347;-35
2022/02/03 03:41:46;;;;;;;69.55;55.00;;;;;;;31.16;57.30;101086.06;5074654;27;65570;-36
2022/02/03 03:44:18;;;;;;;78.85;61.15;;;;;;;31.01;56.93;101053.03;5075023;27;69068;-36
2022/02/03 03:46:51;;;;;;;75.35;62.97;;;;;;;30.98;56.76;101042.63;5070376;27;65772;-36
2022/02/03 03:49:48;;;;;;;78.38;63.95;;;;;;;31.13;57.39;101064.84;5063352;28;69223;-37
2022/02/03 03:52:26;;;;;;;80.63;66.50;;;;;;;31.24;56.34;101065.19;5070437;27;66012;-37
2022/02/03 03:58:24;;;;;;;97.63;80.72;;;;;;;31.29;56.77;101057.25;5071986;28;66523;-36
2022/02/03 05:05:58;;;;;;;35.30;31.42;;;;;;;31.79;54.13;100921.69;5066097;28;69527;-35
2022/02/03 05:11:58;;;;;;;37.20;31.38;;;;;;;31.78;54.15;100911.88;5067715;27;69608;-35
2022/02/03 05:33:47;;;;;;;61.38;51.95;;;;;;;31.98;54.11;100882.69;5063999;28;66510;-36
2022/02/03 06:05:06;;;;;;;107.75;94.03;;;;;;;32.12;53.09;100820.88;5068487;28;70154;-35
2022/02/03 06:13:09;;;;;;;116.78;104.47;;;;;;;32.18;53.05;100809.13;5064072;28;65203;-36
2022/02/03 06:15:46;;;;;;;125.25;111.95;;;;;;;32.20;53.47;100792.59;5068846;28;69876;-35
2022/02/03 06:23:46;;;;;;;121.25;108.25;;;;;;;32.23;52.89;100784.84;5065346;28;66445;-35
2022/02/03 06:29:16;;;;;;;119.53;106.20;;;;;;;32.08;52.80;100748.34;5061483;28;66285;-36
2022/02/03 06:31:52;;;;;;;119.95;107.60;;;;;;;32.12;52.63;100738.66;5073619;28;69519;-35
2022/02/03 06:34:23;;;;;;;124.07;110.70;;;;;;;32.29;53.08;100753.22;5063589;28;64905;-35
2022/02/03 06:36:55;;;;;;;128.20;114.03;;;;;;;32.33;53.01;100753.59;5064972;27;69773;-36
2022/02/03 06:39:29;;;;;;;127.40;113.57;;;;;;;32.36;52.58;100747.69;5060002;28;66522;-35
2022/02/03 06:42:02;;;;;;;121.68;108.38;;;;;;;32.37;52.77;100750.16;5070166;28;70163;-36
2022/02/03 06:50:15;;;;;;;112.45;100.25;;;;;;;32.41;52.54;100729.63;5059227;28;65162;-35
2022/02/03 06:52:54;;;;;;;109.88;98.00;;;;;;;32.44;52.49;100721.03;5062898;27;70553;-35
2022/02/03 06:55:47;;;;;;;111.47;99.57;;;;;;;32.49;52.21;100720.34;5062305;27;66646;-36
2022/02/03 06:58:46;;;;;;;111.80;99.93;;;;;;;32.53;52.59;100720.69;5067321;28;70124;-35
2022/02/03 07:01:22;;;;;;;113.13;99.53;;;;;;;32.47;52.57;100704.28;5067172;27;65790;-35
2022/02/03 07:03:57;;;;;;;106.72;95.13;;;;;;;32.58;52.23;100707.25;5070649;27;69465;-35
2022/02/03 07:06:32;;;;;;;109.00;97.25;;;;;;;32.62;52.36;100702.97;5072482;28;65509;-36
2022/02/03 07:09:07;;;;;;;108.60;97.00;;;;;;;32.35;51.80;100651.84;5068145;28;69561;-36
2022/02/03 07:11:39;;;;;;;111.10;96.45;;;;;;;32.61;52.27;100691.31;5076252;27;66528;-35
2022/02/03 07:14:12;;;;;;;110.70;97.43;;;;;;;32.68;51.72;100702.03;5077238;27;70211;-35
2022/02/03 07:16:48;;;;;;;104.63;93.35;;;;;;;32.67;52.04;100686.81;5072518;27;66369;-35
2022/02/03 07:19:19;;;;;;;107.75;95.93;;;;;;;32.66;51.93;100682.44;5066349;28;69925;-35
2022/02/03 07:21:50;;;;;;;105.13;91.18;;;;;;;32.69;51.92;100687.41;5071457;27;65173;-35
2022/02/03 07:24:20;;;;;;;102.53;91.35;;;;;;;32.71;51.88;100693.44;5076197;28;69861;-35
2022/02/03 07:26:51;;;;;;;101.57;85.05;;;;;;;32.75;51.70;100686.44;5068688;28;65321;-36
2022/02/03 07:29:21;;;;;;;94.05;83.80;;;;;;;32.72;51.52;100670.63;5070587;28;69603;-35
2022/02/03 07:31:52;;;;;;;93.18;80.68;;;;;;;32.77;51.63;100678.91;5069331;27;66114;-36
2022/02/03 07:34:22;;;;;;;86.85;77.47;;;;;;;32.75;51.77;100669.34;5072382;27;69601;-36
2022/02/03 07:36:53;;;;;;;82.63;72.30;;;;;;;32.79;51.70;100667.78;5072786;28;66401;-36
2022/02/03 07:39:24;;;;;;;82.82;73.85;;;;;;;32.81;51.65;100671.91;5073758;27;69041;-35
2022/02/03 07:41:55;;;;;;;86.63;74.97;;;;;;;32.82;51.66;100670.88;5070792;27;65320;-35
2022/02/03 07:44:26;;;;;;;83.88;73.70;;;;;;;32.78;51.53;100658.81;5069830;27;68548;-35
2022/02/03 07:46:56;;;;;;;78.00;69.43;;;;;;;32.87;51.60;100673.66;5091487;27;65449;-37
2022/02/03 07:49:29;;;;;;;75.45;66.60;;;;;;;32.90;51.61;100662.34;5071034;27;68928;-35
2022/02/03 07:52:00;;;;;;;73.78;63.70;;;;;;;32.85;51.78;100658.69;5064957;28;66615;-35
2022/02/03 07:54:31;;;;;;;68.53;57.53;;;;;;;32.91;51.69;100665.88;5068172;28;70091;-35
2022/02/03 07:57:03;;;;;;;62.83;55.47;;;;;;;32.90;51.45;100659.63;5070101;27;65438;-36
2022/02/03 07:59:34;;;;;;;;;;;;;;;32.81;52.06;100661.03;5075142;27;69346;-36
2022/02/03 08:02:04;;;;;;;56.72;50.60;;;;;;;33.04;51.78;100662.09;5066863;27;66565;-36
2022/02/03 08:04:42;;;;;;;55.90;48.55;;;;;;;33.10;51.39;100650.28;5064137;28;70370;-36
2022/02/03 08:07:16;;;;;;;47.00;41.78;;;;;;;33.10;50.43;100656.53;5067313;27;65436;-36
2022/02/03 08:09:56;;;;;;;34.35;27.77;;;;;;;33.16;51.24;100668.34;5068991;28;70401;-35
2022/02/03 08:12:33;;;;;;;41.75;34.15;;;;;;;33.26;50.61;100654.09;5068373;28;67517;-35
2022/02/03 08:15:04;;;;;;;22.48;18.90;;;;;;;33.29;51.24;100659.91;5065601;28;70330;-35
2022/02/03 08:17:39;;;;;;;20.67;16.52;;;;;;;33.30;51.07;100628.94;5066774;28;65799;-35
2022/02/03 08:20:15;;;;;;;25.90;20.45;;;;;;;33.55;50.65;100652.25;5062091;28;70791;-35
2022/02/03 08:22:54;;;;;;;21.77;19.48;;;;;;;33.71;50.51;100662.34;5065689;28;66382;-35
2022/02/03 08:25:28;;;;;;;27.48;23.73;;;;;;;33.77;50.29;100666.81;5069962;27;70184;-35
2022/02/03 08:28:40;;;;;;;27.08;24.30;;;;;;;33.80;50.52;100671.75;5061197;28;66350;-36
2022/02/03 08:31:01;;;;;;;29.33;22.52;;;;;;;33.88;50.45;100666.97;5066449;28;70715;-35
2022/02/03 08:33:32;;;;;;;25.25;22.30;;;;;;;33.89;49.78;100668.63;5070808;28;66273;-36
2022/02/03 08:36:05;;;;;;;28.00;22.63;;;;;;;33.92;49.36;100668.94;5077153;27;70927;-36
2022/02/03 08:38:47;;;;;;;24.88;22.17;;;;;;;33.90;49.14;100662.09;5071767;27;66618;-35
2022/02/03 08:41:18;;;;;;;25.15;21.08;;;;;;;33.95;49.49;100662.19;5071012;27;69853;-35
2022/02/03 08:43:49;;;;;;;21.77;19.58;;;;;;;33.96;49.07;100672.00;5073740;27;66299;-35
2022/02/03 08:46:24;;;;;;;21.77;18.77;;;;;;;33.97;49.44;100665.50;5075763;28;70170;-35
2022/02/03 08:48:55;;;;;;;21.67;18.25;;;;;;;33.99;49.31;100664.19;5073688;27;66285;-36
2022/02/03 08:51:25;;;;;;;19.27;17.30;;;;;;;34.03;49.27;100653.63;5072531;28;69863;-36
2022/02/03 08:54:03;;;;;;;18.40;16.63;;;;;;;34.03;49.22;100664.50;5058667;28;66275;-35
2022/02/03 08:59:26;;;;;;;16.55;15.15;;;;;;;34.10;49.33;100659.78;5063444;27;65099;-36
2022/02/03 09:36:09;;;;;;;11.25;10.45;;;;;;;34.38;49.16;100682.50;5067147;28;70192;-35
2022/02/03 09:39:05;;;;;;;11.32;10.20;;;;;;;34.40;49.53;100675.72;5073238;28;66334;-36
2022/02/03 09:55:46;;;;;;;9.25;8.32;;;;;;;34.44;49.71;100693.22;5067714;28;66445;-36
2022/02/03 09:58:20;;;;;;;9.77;8.82;;;;;;;34.47;49.47;100700.09;5064668;28;69992;-36
2022/02/03 10:03:51;;;;;;;10.35;9.23;;;;;;;34.52;49.95;100705.63;5060034;28;69978;-35
2022/02/03 10:06:25;;;;;;;16.60;8.95;;;;;;;34.25;49.64;100665.44;5067554;28;65385;-35
2022/02/03 10:08:56;;;;;;;9.00;8.05;;;;;;;34.52;50.02;100708.34;5064686;28;70244;-36
2022/02/03 10:11:29;;;;;;;9.95;8.40;;;;;;;34.52;49.51;100710.22;5060290;27;66023;-35
2022/02/03 10:14:03;;;;;;;9.70;8.70;;;;;;;34.33;49.46;100685.16;5060218;28;70085;-35
2022/02/03 10:16:36;;;;;;;8.45;7.68;;;;;;;34.37;49.47;100699.91;5062007;28;67034;-36
2022/02/03 10:19:20;;;;;;;10.52;7.70;;;;;;;34.53;49.59;100734.50;5060116;28;70320;-35
2022/02/03 10:21:51;;;;;;;8.68;7.70;;;;;;;34.51;49.35;100736.63;5063814;28;66131;-34
2022/02/03 10:24:23;;;;;;;9.02;7.75;;;;;;;34.50;49.37;100735.00;5059933;28;70324;-35
2022/02/03 10:26:54;;;;;;;9.27;8.15;;;;;;;34.50;49.11;100740.44;5073585;28;66248;-34
2022/02/03 10:29:31;;;;;;;8.40;7.75;;;;;;;34.44;49.33;100736.00;5077587;27;70079;-35
2022/02/03 10:32:01;;;;;;;7.55;6.90;;;;;;;34.40;49.38;100730.19;5063650;27;66240;-35
2022/02/03 10:34:41;;;;;;;7.80;7.22;;;;;;;34.46;49.70;100747.44;5057671;28;68983;-35
2022/02/03 10:37:26;;;;;;;7.95;7.10;;;;;;;34.46;49.54;100756.47;5060011;28;66637;-35
2022/02/03 10:45:40;;;;;;;7.45;6.85;;;;;;;34.41;49.60;100758.28;5072796;27;69779;-34
2022/02/03 10:48:47;;;;;;;9.35;7.45;;;;;;;34.37;49.69;100768.00;5061252;28;66188;-36
2022/02/03 10:51:49;;;;;;;8.23;7.60;;;;;;;34.34;49.81;100776.66;5063041;28;69702;-35
2022/02/03 10:54:41;;;;;;;7.65;6.75;;;;;;;34.31;49.95;100761.63;5062850;27;65003;-35
2022/02/03 11:03:07;;;;;;;7.57;6.70;;;;;;;34.22;50.27;100782.19;5072571;28;70082;-36
2022/02/03 11:08:38;;;;;;;13.98;6.85;;;;;;;34.17;50.07;100795.69;5066608;28;69984;-36
2022/02/03 11:11:17;;;;;;;11.93;7.85;;;;;;;33.93;49.99;100762.28;5066812;28;65571;-36
2022/02/03 11:13:50;;;;;;;14.57;8.15;;;;;;;34.10;50.38;100795.88;5068456;28;70152;-35
2022/02/03 11:16:21;;;;;;;12.95;8.90;;;;;;;34.08;50.53;100799.91;5063727;27;65941;-36
2022/02/03 11:18:56;;;;;;;13.53;8.37;;;;;;;34.00;50.53;100795.63;5066528;28;70813;-34
2022/02/03 11:21:27;;;;;;;11.07;8.38;;;;;;;34.02;50.23;100790.78;5042809;28;65934;-36
2022/02/03 11:24:04;;;;;;;9.60;8.65;;;;;;;34.00;50.30;100798.34;5080986;27;71632;-35
2022/02/03 11:27:07;;;;;;;11.93;8.00;;;;;;;33.98;50.19;100797.78;5069505;27;66390;-36
2022/02/03 11:32:44;;;;;;;13.02;7.88;;;;;;;33.93;50.32;100803.09;5069166;28;66018;-35
2022/02/03 11:44:24;;;;;;;21.05;8.75;;;;;;;33.81;50.39;100833.91;5071510;27;65535;-33
2022/02/03 12:18:20;;;;;;;6.75;6.13;;;;;;;33.72;50.43;100870.72;5066740;28;65300;-35
2022/02/03 12:20:58;;;;;;;6.93;6.30;;;;;;;33.70;50.32;100872.84;5082866;27;71001;-35
2022/02/03 12:23:59;;;;;;;7.63;6.18;;;;;;;33.61;50.38;100866.16;5074501;27;66352;-36
2022/02/03 12:26:45;;;;;;;6.55;6.05;;;;;;;33.50;50.27;100837.03;5070414;27;69859;-36
2022/02/03 12:29:23;;;;;;;7.70;5.95;;;;;;;33.64;50.54;100868.38;5070572;27;68210;-35
2022/02/03 12:32:10;;;;;;;6.93;6.00;;;;;;;33.67;50.53;100881.50;5066485;27;69743;-37
2022/02/03 12:40:06;;;;;;;13.73;6.63;;;;;;;33.59;50.75;100882.69;5072085;28;65484;-36
2022/02/03 12:42:49;;;;;;;6.13;5.55;;;;;;;33.58;50.72;100888.38;5073107;27;70125;-36
2022/02/03 12:45:30;;;;;;;6.63;5.95;;;;;;;33.56;50.80;100893.22;5064450;27;65206;-35
2022/02/03 12:48:04;;;;;;;5.78;5.28;;;;;;;33.17;50.71;100835.78;5073069;27;69621;-35
2022/02/03 12:50:36;;;;;;;6.25;5.65;;;;;;;33.54;50.79;100903.50;5069087;28;66296;-36
2022/02/03 12:53:08;;;;;;;12.00;6.13;;;;;;;33.49;50.63;100901.50;5067564;27;70044;-36
2022/02/03 12:55:42;;;;;;;10.75;5.40;;;;;;;33.50;50.80;100910.47;5068703;27;65260;-36
2022/02/03 12:58:16;;;;;;;7.22;5.57;;;;;;;33.49;50.91;100908.78;5064730;27;70659;-35
2022/02/03 13:03:45;;;;;;;5.72;5.32;;;;;;;33.45;51.00;100929.38;5060354;28;70029;-36
2022/02/03 13:06:25;;;;;;;6.03;5.55;;;;;;;33.45;50.95;100937.53;5065254;27;65564;-35
2022/02/03 13:08:59;;;;;;;6.25;5.65;;;;;;;33.43;51.27;100936.94;5060547;28;68850;-36
2022/02/03 13:11:39;;;;;;;8.27;5.72;;;;;;;33.23;51.05;100902.78;5072049;28;65417;-36
2022/02/03 13:14:28;;;;;;;6.15;5.57;;;;;;;33.33;50.93;100924.78;5058974;28;70119;-35
2022/02/03 13:20:10;;;;;;;6.80;6.20;;;;;;;33.24;50.83;100934.34;5068766;28;69196;-35
2022/02/03 13:22:48;;;;;;;6.00;5.45;;;;;;;33.30;51.30;100948.91;5061861;28;65336;-36
2022/02/03 13:33:30;;;;;;;6.28;5.78;;;;;;;33.05;51.24;100930.09;5057453;28;66396;-35
2022/02/03 13:36:12;;;;;;;8.60;5.53;;;;;;;33.24;51.52;100977.00;5057708;28;69965;-35
2022/02/03 13:41:23;;;;;;;6.63;6.05;;;;;;;33.24;51.28;100983.28;5060791;28;69161;-35
2022/02/03 13:43:55;;;;;;;6.55;5.90;;;;;;;33.20;51.49;100982.09;5086129;27;65844;-35
2022/02/03 13:46:25;;;;;;;;;;;;;;;32.97;51.59;100971.16;5066288;27;69339;-36
2022/02/03 13:48:57;;;;;;;7.68;5.57;;;;;;;33.12;51.80;100979.69;5064131;28;66304;-36
2022/02/03 13:51:30;;;;;;;9.70;5.50;;;;;;;32.98;51.54;100953.78;5059313;28;69175;-35
2022/02/03 13:54:27;;;;;;;5.95;5.45;;;;;;;33.15;51.46;100990.09;5060615;28;65041;-36
2022/02/03 14:14:26;;;;;;;6.35;5.75;;;;;;;33.02;51.53;101006.63;5067197;28;69730;-35
2022/02/03 14:20:11;;;;;;;8.18;5.80;;;;;;;32.97;51.79;101026.31;5055791;28;69753;-35
2022/02/03 14:22:28;;;;;;;6.63;5.65;;;;;;;32.97;51.72;101031.75;5059544;28;65191;-35
2022/02/03 14:28:01;;;;;;;6.18;5.38;;;;;;;32.92;51.78;101043.31;5074811;27;66334;-35
2022/02/03 14:30:37;;;;;;;7.50;5.47;;;;;;;32.91;52.20;101030.78;5061768;27;69395;-36
2022/02/03 14:33:07;;;;;;;6.30;5.28;;;;;;;32.92;51.83;101037.03;5073900;28;66042;-36
2022/02/03 14:35:38;;;;;;;5.80;5.25;;;;;;;32.86;51.95;101033.38;5075879;27;70545;-35
2022/02/03 14:38:31;;;;;;;5.15;4.70;;;;;;;32.87;52.04;101031.47;5060690;28;65393;-35
2022/02/03 14:41:17;;;;;;;5.40;5.00;;;;;;;32.83;52.24;101036.53;5060003;28;69396;-35
2022/02/03 14:43:48;;;;;;;5.80;5.30;;;;;;;32.85;52.01;101039.88;5066877;27;65945;-35
2022/02/03 14:46:29;;;;;;;5.30;4.80;;;;;;;32.81;52.17;101035.94;5067994;28;70064;-35
2022/02/03 14:49:00;;;;;;;7.55;5.07;;;;;;;32.81;51.99;101038.66;5060810;28;66295;-36
2022/02/03 14:51:42;;;;;;;5.88;5.28;;;;;;;32.82;52.01;101059.34;5068087;28;69647;-35
2022/02/03 14:59:55;;;;;;;5.93;5.43;;;;;;;32.78;52.17;101074.44;5069252;28;67015;-36
2022/02/03 15:02:26;;;;;;;6.28;5.45;;;;;;;32.78;52.12;101071.72;5070310;28;70280;-35
2022/02/03 15:05:04;;;;;;;7.53;5.75;;;;;;;32.78;52.12;101077.16;5066832;27;66262;-35
2022/02/03 15:07:43;;;;;;;6.82;4.93;;;;;;;32.75;52.20;101072.19;5058509;28;70403;-35
2022/02/03 15:10:30;;;;;;;5.20;4.80;;;;;;;32.75;52.36;101065.91;5065907;28;65331;-39
2022/02/03 15:13:09;;;;;;;5.82;5.30;;;;;;;32.73;52.04;101068.84;5059698;28;69192;-35
2022/02/03 15:15:40;;;;;;;5.25;4.85;;;;;;;32.72;52.38;101069.91;5058243;28;65256;-35
2022/02/03 15:18:11;;;;;;;5.55;5.05;;;;;;;32.72;52.37;101073.47;5053394;28;70013;-35
2022/02/03 15:20:41;;;;;;;5.88;5.25;;;;;;;32.71;52.46;101065.56;5068873;27;65570;-36
2022/02/03 15:23:12;;;;;;;8.43;5.97;;;;;;;32.68;52.29;101060.56;5074010;28;69993;-36
2022/02/03 15:25:42;;;;;;;5.68;5.28;;;;;;;32.69;52.38;101059.50;5063694;28;66129;-36
2022/02/03 15:28:13;;;;;;;5.20;4.68;;;;;;;32.68;52.72;101065.97;5063218;28;70186;-35
2022/02/03 15:30:44;;;;;;;5.68;5.22;;;;;;;32.67;52.25;101058.91;5090935;27;67925;-36
2022/02/03 15:33:16;;;;;;;5.30;4.93;;;;;;;32.67;52.66;101059.72;5074188;27;70266;-36
2022/02/03 15:35:50;;;;;;;5.28;4.88;;;;;;;32.64;52.13;101057.47;5073671;27;65400;-37
2022/02/03 15:38:22;;;;;;;5.35;4.95;;;;;;;32.66;52.40;101062.69;5069228;28;69495;-35
2022/02/03 15:40:55;;;;;;;5.90;5.25;;;;;;;32.62;52.60;101053.31;5061234;28;66402;-35
2022/02/03 15:43:36;;;;;;;6.38;5.00;;;;;;;32.65;52.78;101063.72;5066257;27;70539;-35
2022/02/03 15:46:08;;;;;;;6.15;5.20;;;;;;;32.61;52.57;101065.25;5072038;27;65338;-35
2022/02/03 15:57:17;;;;;;;5.70;4.38;;;;;;;32.59;52.42;101079.03;5066497;28;66558;-35
2022/02/03 16:02:57;;;;;;;5.43;4.93;;;;;;;32.55;52.60;101082.47;5068471;28;65764;-36
2022/02/03 16:19:21;;;;;;;5.38;4.97;;;;;;;32.55;52.82;101115.06;5061610;28;66939;-35
2022/02/03 16:22:08;;;;;;;5.93;5.38;;;;;;;32.54;52.73;101113.38;5061224;28;70155;-35
2022/02/03 16:24:51;;;;;;;5.65;5.15;;;;;;;32.49;52.96;101104.03;5061213;28;66513;-37
2022/02/03 16:52:46;;;;;;;5.95;5.55;;;;;;;32.44;53.49;101065.84;5067838;28;65263;-36
2022/02/03 16:55:21;;;;;;;5.65;5.13;;;;;;;32.45;53.41;101070.19;5061160;28;70142;-36
2022/02/03 16:57:55;;;;;;;5.45;5.15;;;;;;;32.43;53.25;101064.19;5062140;28;66576;-35
2022/02/03 17:00:25;;;;;;;6.05;5.43;;;;;;;32.43;53.29;101058.75;5061709;28;69088;-35
2022/02/03 17:03:00;;;;;;;5.45;5.05;;;;;;;32.39;53.52;101045.84;5063201;28;66020;-35
2022/02/03 17:05:34;;;;;;;5.50;5.20;;;;;;;32.40;53.20;101048.34;5046485;27;70591;-35
2022/02/03 17:08:08;;;;;;;5.55;5.13;;;;;;;32.43;53.54;101052.47;5066949;27;66515;-35
2022/02/03 17:10:39;;;;;;;5.28;4.97;;;;;;;32.41;53.58;101052.72;5063438;28;70375;-35
2022/02/03 17:13:09;;;;;;;6.28;5.75;;;;;;;32.41;53.54;101058.16;5067646;28;65880;-35
2022/02/03 17:15:40;;;;;;;6.38;5.80;;;;;;;32.39;53.44;101040.41;5067432;27;69709;-35
2022/02/03 17:18:12;;;;;;;7.43;5.63;;;;;;;32.39;53.41;101030.38;5060160;28;66424;-35
2022/02/03 17:20:43;;;;;;;;;;;;;;;32.15;53.77;101023.13;5058636;28;70174;-36
2022/02/03 17:23:17;;;;;;;5.88;5.47;;;;;;;32.36;53.66;101019.97;5061020;27;65867;-35
2022/02/03 17:25:55;;;;;;;5.88;5.47;;;;;;;32.37;53.43;101018.09;5060041;28;69210;-35
2022/02/03 17:28:53;;;;;;;5.68;5.28;;;;;;;32.36;53.35;101019.97;5060109;28;65807;-35
2022/02/03 17:31:44;;;;;;;5.85;5.45;;;;;;;32.33;53.43;101004.16;5064079;28;70456;-36
2022/02/03 17:54:52;;;;;;;5.55;5.15;;;;;;;32.28;53.17;100971.41;5050925;28;70629;-35
2022/02/03 18:11:04;;;;;;;5.75;5.45;;;;;;;32.24;53.73;100956.66;5066000;27;69489;-35
2022/02/03 19:23:21;;;;;;;5.90;5.50;;;;;;;32.07;53.81;100887.75;5069589;27;70091;-34
2022/02/03 20:06:48;;;;;;;5.03;4.72;;;;;;;31.97;54.16;100867.44;5067269;27;70524;-34
2022/02/03 20:09:27;;;;;;;5.88;5.47;;;;;;;31.97;54.42;100862.00;5069991;27;65479;-34
2022/02/03 20:11:57;;;;;;;5.85;5.50;;;;;;;31.96;54.24;100873.94;5064730;28;70439;-35
2022/02/03 20:14:28;;;;;;;5.88;5.47;;;;;;;31.96;54.26;100865.78;5064426;28;66412;-35
2022/02/03 20:16:58;;;;;;;5.95;5.45;;;;;;;31.95;54.13;100866.81;5064980;28;69524;-35
2022/02/03 20:19:30;;;;;;;5.55;5.15;;;;;;;31.96;54.16;100868.50;5068323;27;65951;-35
2022/02/03 20:22:00;;;;;;;5.97;5.53;;;;;;;31.94;54.29;100865.19;5061937;28;69956;-35
2022/02/03 20:24:31;;;;;;;5.28;4.97;;;;;;;31.96;54.36;100868.50;5073966;27;65916;-35
2022/02/03 20:27:02;;;;;;;6.18;5.68;;;;;;;31.96;54.35;100862.25;5068914;27;69325;-35
2022/02/03 20:29:32;;;;;;;5.68;5.28;;;;;;;31.95;54.11;100866.81;5059274;28;66120;-35
2022/02/03 20:32:03;;;;;;;6.05;5.55;;;;;;;31.94;54.38;100865.19;5069979;28;69667;-35
2022/02/03 20:34:33;;;;;;;5.68;5.30;;;;;;;31.93;54.24;100868.97;5060455;28;65807;-36
2022/02/03 20:37:04;;;;;;;5.68;5.35;;;;;;;31.92;54.10;100861.84;5069265;28;70405;-35
2022/02/03 20:39:34;;;;;;;5.90;5.50;;;;;;;31.93;53.92;100866.25;5069622;27;66510;-34
2022/02/03 20:42:07;;;;;;;5.97;5.47;;;;;;;31.93;54.64;100863.53;5072130;27;70653;-34
2022/02/03 20:44:38;;;;;;;5.88;5.38;;;;;;;31.92;54.37;100864.56;5076636;27;66079;-34
2022/02/03 20:47:08;;;;;;;5.80;5.32;;;;;;;31.89;54.41;100870.41;5063552;27;69781;-35
2022/02/03 20:49:40;;;;;;;5.68;5.30;;;;;;;31.92;54.54;100877.31;5061852;28;66728;-35
2022/02/03 20:52:11;;;;;;;6.82;6.05;;;;;;;31.89;54.15;100881.28;5061026;28;70675;-35
2022/02/03 20:54:41;;;;;;;5.88;5.47;;;;;;;31.87;54.04;100875.25;5070373;27;65271;-35
2022/02/03 20:57:12;;;;;;;5.65;5.25;;;;;;;31.90;54.68;100879.38;5071568;27;69735;-35
2022/02/03 21:00:16;;;;;;;6.18;5.68;;;;;;;31.86;54.56;100879.03;5062554;27;65711;-35
2022/02/03 21:02:56;;;;;;;6.55;6.03;;;;;;;31.80;54.53;100869.09;5074374;27;70459;-35
2022/02/03 21:05:27;;;;;;;6.20;5.80;;;;;;;31.87;54.43;100887.97;5059668;28;65330;-35
2022/02/03 21:07:58;;;;;;;5.95;5.55;;;;;;;31.86;54.29;100884.44;5060498;27;69875;-35
2022/02/03 21:10:31;;;;;;;5.68;5.20;;;;;;;31.86;54.79;100883.63;5061213;28;65739;-36
2022/02/03 21:13:01;;;;;;;5.85;5.45;;;;;;;31.85;54.42;100890.94;5074841;27;70418;-35
2022/02/03 21:15:35;;;;;;;6.18;5.82;;;;;;;31.80;54.36;100885.34;5070443;28;66227;-35
2022/02/03 21:18:11;;;;;;;6.57;6.18;;;;;;;31.85;54.53;100893.66;5060085;28;70230;-35
2022/02/03 21:20:43;;;;;;;6.40;6.00;;;;;;;31.80;54.52;100880.75;5061370;28;66660;-35
2022/02/03 21:23:14;;;;;;;6.05;5.55;;;;;;;31.80;54.87;100885.34;5060064;28;69538;-35
2022/02/03 21:25:48;;;;;;;6.57;5.95;;;;;;;31.79;54.51;100889.13;5064282;27;67104;-35
2022/02/03 21:28:26;;;;;;;5.97;5.50;;;;;;;31.80;54.62;100886.19;5068455;27;70028;-35
2022/02/03 21:30:59;;;;;;;6.30;5.88;;;;;;;31.63;54.48;100862.63;5067814;27;66048;-35
2022/02/03 21:33:33;;;;;;;;;;;;;;;31.54;55.17;100897.34;5061555;28;70281;-35
2022/02/03 21:36:11;;;;;;;5.88;5.38;;;;;;;31.54;54.59;100865.63;5066031;28;66006;-35
2022/02/03 21:38:42;;;;;;;6.53;5.97;;;;;;;31.78;54.66;100904.56;5076406;27;70096;-35
2022/02/03 21:41:14;;;;;;;6.00;5.50;;;;;;;31.76;54.83;100900.41;5060175;28;66339;-34
2022/02/03 21:43:48;;;;;;;6.82;6.13;;;;;;;31.77;54.45;100900.19;5061883;28;69745;-35
2022/02/03 21:46:18;;;;;;;6.00;5.63;;;;;;;31.75;54.84;100899.59;5060139;28;66090;-35
2022/02/03 21:48:50;;;;;;;6.47;6.07;;;;;;;31.61;54.35;100877.22;5063467;28;70265;-34
2022/02/03 21:51:25;;;;;;;6.28;5.78;;;;;;;31.75;54.74;100905.00;5072872;27;65520;-36
2022/02/03 21:53:56;;;;;;;6.40;6.00;;;;;;;31.74;54.40;100905.25;5065703;27;70335;-35
2022/02/03 21:56:27;;;;;;;6.57;6.13;;;;;;;31.69;54.81;100899.66;5062602;27;66791;-36
2022/02/03 21:59:01;;;;;;;6.65;6.15;;;;;;;31.71;54.87;100900.28;5075698;27;70087;-35
2022/02/03 22:01:34;;;;;;;5.95;5.55;;;;;;;31.71;54.63;100900.28;5062744;27;66056;-36
2022/02/03 22:04:05;;;;;;;6.05;5.65;;;;;;;31.73;54.81;100903.56;5074724;27;70484;-34
2022/02/03 22:06:35;;;;;;;5.85;5.55;;;;;;;31.72;54.85;100910.06;5069907;28;66286;-35
2022/02/03 22:09:06;;;;;;;6.47;6.07;;;;;;;31.70;55.10;100913.00;5063415;27;69805;-35
2022/02/03 22:11:38;;;;;;;5.95;5.65;;;;;;;31.71;54.63;100908.41;5074922;27;66666;-35